sensor_id;sensor_type;location;lat;lon;timestamp;pressure;altitude;pressure_sealevel;temperature;humidity
10466;BME280;5280;42.600;23.556;2023-02-15T00:00:30;94545.31;;;1.26;100.00
10466;BME280;5280;42.600;23.556;2023-02-15T00:02:56;94531.75;;;1.13;100.00
10466;BME280;5280;42.600;23.556;2023-02-15T00:05:25;94546.28;;;1.22;100.00
10466;BME280;5280;42.600;23.556;2023-02-15T00:07:51;94549.88;;;1.18;100.00
10466;BME280;5280;42.600;23.556;2023-02-15T00:10:18;94548.25;;;1.14;100.00
10466;BME280;5280;42.600;23.556;2023-02-15T00:12:45;94555.13;;;1.15;100.00
10466;BME280;5280;42.600;23.556;2023-02-15T00:15:12;94548.25;;;1.12;100.00
10466;BME280;5280;42.600;23.556;2023-02-15T00:17:39;94543.34;;;1.00;100.00
10466;BME280;5280;42.600;23.556;2023-02-15T00:20:07;94546.75;;;1.04;100.00
10466;BME280;5280;42.600;23.556;2023-02-15T00:22:35;94505.91;;;0.70;100.00
10466;BME280;5280;42.600;23.556;2023-02-15T00:25:02;94569.34;;;1.02;100.00
10466;BME280;5280;42.600;23.556;2023-02-15T00:27:29;94564.09;;;1.03;100.00
10466;BME280;5280;42.600;23.556;2023-02-15T00:29:55;94548.66;;;0.96;100.00
10466;BME280;5280;42.600;23.556;2023-02-15T00:32:22;94564.00;;;1.08;100.00
10466;BME280;5280;42.600;23.556;2023-02-15T00:34:49;94568.44;;;1.04;100.00
10466;BME280;5280;42.600;23.556;2023-02-15T00:37:16;94559.00;;;0.99;100.00
10466;BME280;5280;42.600;23.556;2023-02-15T00:39:44;94561.63;;;0.99;100.00
10466;BME280;5280;42.600;23.556;2023-02-15T00:42:11;94562.38;;;1.04;100.00
10466;BME280;5280;42.600;23.556;2023-02-15T00:44:37;94560.66;;;1.03;100.00
10466;BME280;5280;42.600;23.556;2023-02-15T00:47:04;94564.03;;;1.06;100.00
10466;BME280;5280;42.600;23.556;2023-02-15T00:49:31;94572.81;;;1.02;100.00
10466;BME280;5280;42.600;23.556;2023-02-15T00:51:58;94558.03;;;1.03;100.00
10466;BME280;5280;42.600;23.556;2023-02-15T00:54:24;94551.31;;;0.94;100.00
10466;BME280;5280;42.600;23.556;2023-02-15T00:56:53;94556.25;;;1.05;100.00
10466;BME280;5280;42.600;23.556;2023-02-15T00:59:19;94552.81;;;1.04;100.00
10466;BME280;5280;42.600;23.556;2023-02-15T01:01:46;94545.09;;;1.00;100.00
10466;BME280;5280;42.600;23.556;2023-02-15T01:04:13;94538.41;;;0.90;100.00
10466;BME280;5280;42.600;23.556;2023-02-15T01:06:40;94548.59;;;0.99;100.00
10466;BME280;5280;42.600;23.556;2023-02-15T01:09:07;94532.34;;;0.89;100.00
10466;BME280;5280;42.600;23.556;2023-02-15T01:11:37;94549.41;;;1.01;100.00
10466;BME280;5280;42.600;23.556;2023-02-15T01:14:06;94573.78;;;0.98;100.00
10466;BME280;5280;42.600;23.556;2023-02-15T01:16:33;94555.59;;;0.97;100.00
10466;BME280;5280;42.600;23.556;2023-02-15T01:18:59;94535.81;;;0.90;100.00
10466;BME280;5280;42.600;23.556;2023-02-15T01:21:27;94538.41;;;0.90;100.00
10466;BME280;5280;42.600;23.556;2023-02-15T01:23:54;94539.19;;;0.93;100.00
10466;BME280;5280;42.600;23.556;2023-02-15T01:26:21;94530.75;;;0.83;100.00
10466;BME280;5280;42.600;23.556;2023-02-15T01:28:48;94507.72;;;0.67;100.00
10466;BME280;5280;42.600;23.556;2023-02-15T01:31:18;94538.19;;;0.99;100.00
10466;BME280;5280;42.600;23.556;2023-02-15T01:33:46;94516.75;;;0.89;100.00
10466;BME280;5280;42.600;23.556;2023-02-15T01:36:13;94539.09;;;0.98;100.00
10466;BME280;5280;42.600;23.556;2023-02-15T01:38:42;94533.03;;;0.96;100.00
10466;BME280;5280;42.600;23.556;2023-02-15T01:41:09;94540.94;;;0.93;100.00
10466;BME280;5280;42.600;23.556;2023-02-15T01:43:54;94545.25;;;0.94;100.00
10466;BME280;5280;42.600;23.556;2023-02-15T01:46:28;94540.09;;;0.91;100.00
10466;BME280;5280;42.600;23.556;2023-02-15T01:49:03;94520.28;;;0.85;100.00
10466;BME280;5280;42.600;23.556;2023-02-15T01:51:34;94528.91;;;0.89;100.00
10466;BME280;5280;42.600;23.556;2023-02-15T01:54:10;94530.63;;;0.88;100.00
10466;BME280;5280;42.600;23.556;2023-02-15T01:56:39;94521.94;;;0.89;100.00
10466;BME280;5280;42.600;23.556;2023-02-15T01:59:11;94526.34;;;0.85;100.00
10466;BME280;5280;42.600;23.556;2023-02-15T02:01:39;94534.16;;;0.85;100.00
10466;BME280;5280;42.600;23.556;2023-02-15T02:04:11;94543.69;;;0.86;100.00
10466;BME280;5280;42.600;23.556;2023-02-15T02:06:39;94531.66;;;0.81;100.00
10466;BME280;5280;42.600;23.556;2023-02-15T02:09:07;94497.31;;;0.68;100.00
10466;BME280;5280;42.600;23.556;2023-02-15T02:11:34;94522.88;;;0.86;100.00
10466;BME280;5280;42.600;23.556;2023-02-15T02:14:01;94514.31;;;0.81;100.00
10466;BME280;5280;42.600;23.556;2023-02-15T02:16:34;94528.06;;;0.86;100.00
10466;BME280;5280;42.600;23.556;2023-02-15T02:22:36;94523.97;;;0.76;100.00
10466;BME280;5280;42.600;23.556;2023-02-15T02:25:39;94546.41;;;0.82;100.00
10466;BME280;5280;42.600;23.556;2023-02-15T02:28:27;94543.03;;;0.78;100.00
10466;BME280;5280;42.600;23.556;2023-02-15T02:31:19;94543.81;;;0.80;100.00
10466;BME280;5280;42.600;23.556;2023-02-15T02:33:59;94528.53;;;0.67;100.00
10466;BME280;5280;42.600;23.556;2023-02-15T02:36:32;94539.56;;;0.78;100.00
10466;BME280;5280;42.600;23.556;2023-02-15T02:39:12;94549.88;;;0.81;100.00
10466;BME280;5280;42.600;23.556;2023-02-15T02:41:48;94543.81;;;0.80;100.00
10466;BME280;5280;42.600;23.556;2023-02-15T02:44:23;94539.47;;;0.81;100.00
10466;BME280;5280;42.600;23.556;2023-02-15T02:46:57;94527.31;;;0.81;100.00
10466;BME280;5280;42.600;23.556;2023-02-15T02:49:35;94542.03;;;0.82;100.00
10466;BME280;5280;42.600;23.556;2023-02-15T02:52:04;94533.50;;;0.77;100.00
10466;BME280;5280;42.600;23.556;2023-02-15T02:54:33;94455.63;;;0.34;100.00
10466;BME280;5280;42.600;23.556;2023-02-15T02:57:04;94536.75;;;0.85;100.00
10466;BME280;5280;42.600;23.556;2023-02-15T02:59:34;94538.56;;;0.83;100.00
10466;BME280;5280;42.600;23.556;2023-02-15T03:02:05;94545.50;;;0.83;100.00
10466;BME280;5280;42.600;23.556;2023-02-15T03:04:41;94553.19;;;0.88;100.00
10466;BME280;5280;42.600;23.556;2023-02-15T03:07:12;94551.63;;;0.80;100.00
10466;BME280;5280;42.600;23.556;2023-02-15T03:09:42;94546.53;;;0.76;100.00
10466;BME280;5280;42.600;23.556;2023-02-15T03:12:14;94511.53;;;0.54;100.00
10466;BME280;5280;42.600;23.556;2023-02-15T03:14:44;94559.25;;;0.90;100.00
10466;BME280;5280;42.600;23.556;2023-02-15T03:17:14;94574.91;;;0.86;100.00
10466;BME280;5280;42.600;23.556;2023-02-15T03:19:45;94575.75;;;0.87;100.00
10466;BME280;5280;42.600;23.556;2023-02-15T03:22:17;94575.78;;;0.85;100.00
10466;BME280;5280;42.600;23.556;2023-02-15T03:24:51;94565.38;;;0.85;100.00
10466;BME280;5280;42.600;23.556;2023-02-15T03:27:24;94556.81;;;0.80;100.00
10466;BME280;5280;42.600;23.556;2023-02-15T03:29:54;94569.66;;;0.90;100.00
10466;BME280;5280;42.600;23.556;2023-02-15T03:32:22;94573.19;;;0.85;100.00
10466;BME280;5280;42.600;23.556;2023-02-15T03:34:51;94508.94;;;0.52;100.00
10466;BME280;5280;42.600;23.556;2023-02-15T03:37:23;94493.56;;;0.43;100.00
10466;BME280;5280;42.600;23.556;2023-02-15T03:39:55;94564.84;;;0.71;100.00
10466;BME280;5280;42.600;23.556;2023-02-15T03:42:45;94569.78;;;0.83;100.00
10466;BME280;5280;42.600;23.556;2023-02-15T03:45:24;94557.00;;;0.74;100.00
10466;BME280;5280;42.600;23.556;2023-02-15T03:47:52;94570.59;;;0.85;100.00
10466;BME280;5280;42.600;23.556;2023-02-15T03:50:27;94551.69;;;0.79;100.00
10466;BME280;5280;42.600;23.556;2023-02-15T03:53:17;94560.91;;;0.92;100.00
10466;BME280;5280;42.600;23.556;2023-02-15T03:55:46;94573.16;;;0.87;100.00
10466;BME280;5280;42.600;23.556;2023-02-15T03:58:13;94565.47;;;0.82;100.00
10466;BME280;5280;42.600;23.556;2023-02-15T04:00:59;94562.13;;;0.76;100.00
10466;BME280;5280;42.600;23.556;2023-02-15T04:03:48;94569.84;;;0.80;100.00
10466;BME280;5280;42.600;23.556;2023-02-15T04:06:19;94515.31;;;0.39;100.00
10466;BME280;5280;42.600;23.556;2023-02-15T04:08:46;94575.00;;;0.82;100.00
10466;BME280;5280;42.600;23.556;2023-02-15T04:11:30;94582.69;;;0.88;100.00
10466;BME280;5280;42.600;23.556;2023-02-15T04:13:56;94585.19;;;0.93;100.00
10466;BME280;5280;42.600;23.556;2023-02-15T04:16:24;94586.16;;;0.89;100.00
10466;BME280;5280;42.600;23.556;2023-02-15T04:18:50;94575.16;;;0.76;100.00
10466;BME280;5280;42.600;23.556;2023-02-15T04:21:35;94568.91;;;0.84;100.00
10466;BME280;5280;42.600;23.556;2023-02-15T04:24:20;94586.94;;;0.91;100.00
10466;BME280;5280;42.600;23.556;2023-02-15T04:27:05;94593.88;;;0.92;100.00
10466;BME280;5280;42.600;23.556;2023-02-15T04:29:32;94602.41;;;0.98;100.00
10466;BME280;5280;42.600;23.556;2023-02-15T04:37:06;94599.75;;;1.00;100.00
10466;BME280;5280;42.600;23.556;2023-02-15T04:39:33;94604.81;;;1.06;100.00
10466;BME280;5280;42.600;23.556;2023-02-15T04:42:00;94609.13;;;1.07;100.00
10466;BME280;5280;42.600;23.556;2023-02-15T04:44:27;94601.25;;;1.10;100.00
10466;BME280;5280;42.600;23.556;2023-02-15T04:46:54;94580.84;;;0.93;100.00
10466;BME280;5280;42.600;23.556;2023-02-15T04:49:21;94598.72;;;1.07;100.00
10466;BME280;5280;42.600;23.556;2023-02-15T04:51:47;94609.88;;;1.12;100.00
10466;BME280;5280;42.600;23.556;2023-02-15T04:54:15;94571.34;;;0.91;100.00
10466;BME280;5280;42.600;23.556;2023-02-15T04:56:42;94594.47;;;1.03;100.00
10466;BME280;5280;42.600;23.556;2023-02-15T04:59:09;94615.97;;;1.11;100.00
10466;BME280;5280;42.600;23.556;2023-02-15T05:01:37;94612.56;;;1.09;100.00
10466;BME280;5280;42.600;23.556;2023-02-15T05:04:03;94616.03;;;1.09;100.00
10466;BME280;5280;42.600;23.556;2023-02-15T05:06:30;94610.22;;;0.98;100.00
10466;BME280;5280;42.600;23.556;2023-02-15T05:08:57;94616.03;;;1.09;100.00
10466;BME280;5280;42.600;23.556;2023-02-15T05:11:26;94612.41;;;1.15;100.00
10466;BME280;5280;42.600;23.556;2023-02-15T05:13:53;94613.25;;;1.15;100.00
10466;BME280;5280;42.600;23.556;2023-02-15T05:16:20;94620.06;;;1.21;100.00
10466;BME280;5280;42.600;23.556;2023-02-15T05:18:46;94630.53;;;1.19;100.00
10466;BME280;5280;42.600;23.556;2023-02-15T05:21:13;94629.56;;;1.23;100.00
10466;BME280;5280;42.600;23.556;2023-02-15T05:23:42;94632.19;;;1.23;100.00
10466;BME280;5280;42.600;23.556;2023-02-15T05:26:10;94639.91;;;1.26;100.00
10466;BME280;5280;42.600;23.556;2023-02-15T05:28:56;94604.03;;;1.02;100.00
10466;BME280;5280;42.600;23.556;2023-02-15T05:31:23;94615.22;;;1.06;100.00
10466;BME280;5280;42.600;23.556;2023-02-15T05:33:50;94641.72;;;1.24;100.00
10466;BME280;5280;42.600;23.556;2023-02-15T05:36:17;94629.06;;;1.08;100.00
10466;BME280;5280;42.600;23.556;2023-02-15T05:38:44;94636.56;;;1.20;100.00
10466;BME280;5280;42.600;23.556;2023-02-15T05:41:11;94643.50;;;1.21;100.00
10466;BME280;5280;42.600;23.556;2023-02-15T05:43:38;94641.09;;;1.13;100.00
10466;BME280;5280;42.600;23.556;2023-02-15T05:46:06;94652.38;;;1.14;100.00
10466;BME280;5280;42.600;23.556;2023-02-15T05:48:34;94651.41;;;1.16;100.00
10466;BME280;5280;42.600;23.556;2023-02-15T05:51:02;94652.38;;;1.14;100.00
10466;BME280;5280;42.600;23.556;2023-02-15T05:53:31;94659.13;;;1.21;100.00
10466;BME280;5280;42.600;23.556;2023-02-15T05:55:58;94662.44;;;1.29;100.00
10466;BME280;5280;42.600;23.556;2023-02-15T05:58:26;94656.28;;;1.30;100.00
10466;BME280;5280;42.600;23.556;2023-02-15T06:00:53;94648.56;;;1.27;100.00
10466;BME280;5280;42.600;23.556;2023-02-15T06:03:21;94661.44;;;1.33;100.00
10466;BME280;5280;42.600;23.556;2023-02-15T06:05:49;94661.34;;;1.38;100.00
10466;BME280;5280;42.600;23.556;2023-02-15T06:08:16;94644.09;;;1.34;100.00
10466;BME280;5280;42.600;23.556;2023-02-15T06:10:42;94662.00;;;1.46;100.00
10466;BME280;5280;42.600;23.556;2023-02-15T06:13:09;94627.75;;;1.27;100.00
10466;BME280;5280;42.600;23.556;2023-02-15T06:15:36;94634.53;;;1.34;100.00
10466;BME280;5280;42.600;23.556;2023-02-15T06:18:03;94662.75;;;1.51;100.00
10466;BME280;5280;42.600;23.556;2023-02-15T06:20:33;94667.84;;;1.55;100.00
10466;BME280;5280;42.600;23.556;2023-02-15T06:23:00;94671.28;;;1.57;100.00
10466;BME280;5280;42.600;23.556;2023-02-15T06:25:26;94644.56;;;1.49;100.00
10466;BME280;5280;42.600;23.556;2023-02-15T06:27:54;94666.78;;;1.64;100.00
10466;BME280;5280;42.600;23.556;2023-02-15T06:30:21;94668.41;;;1.68;100.00
10466;BME280;5280;42.600;23.556;2023-02-15T06:32:47;94639.13;;;1.58;100.00
10466;BME280;5280;42.600;23.556;2023-02-15T06:35:14;94665.75;;;1.69;100.00
10466;BME280;5280;42.600;23.556;2023-02-15T06:37:45;94614.31;;;1.44;100.00
10466;BME280;5280;42.600;23.556;2023-02-15T06:40:12;94668.72;;;1.90;100.00
10466;BME280;5280;42.600;23.556;2023-02-15T06:42:39;94660.97;;;1.87;100.00
10466;BME280;5280;42.600;23.556;2023-02-15T06:45:06;94660.72;;;1.97;100.00
10466;BME280;5280;42.600;23.556;2023-02-15T06:47:33;94663.22;;;2.00;100.00
10466;BME280;5280;42.600;23.556;2023-02-15T06:50:00;94653.66;;;2.01;100.00
10466;BME280;5280;42.600;23.556;2023-02-15T06:52:27;94655.47;;;1.99;100.00
10466;BME280;5280;42.600;23.556;2023-02-15T06:54:56;94650.28;;;1.97;100.00
10466;BME280;5280;42.600;23.556;2023-02-15T06:57:23;94664.09;;;2.01;100.00
10466;BME280;5280;42.600;23.556;2023-02-15T06:59:49;94654.38;;;2.07;100.00
10466;BME280;5280;42.600;23.556;2023-02-15T07:02:18;94660.31;;;2.12;100.00
10466;BME280;5280;42.600;23.556;2023-02-15T07:04:45;94661.50;;;1.99;100.00
10466;BME280;5280;42.600;23.556;2023-02-15T07:07:12;94669.66;;;2.20;100.00
10466;BME280;5280;42.600;23.556;2023-02-15T07:09:39;94665.56;;;2.11;100.00
10466;BME280;5280;42.600;23.556;2023-02-15T07:12:09;94666.84;;;2.29;100.00
10466;BME280;5280;42.600;23.556;2023-02-15T07:14:53;94676.53;;;2.24;100.00
10466;BME280;5280;42.600;23.556;2023-02-15T07:17:20;94678.16;;;2.28;100.00
10466;BME280;5280;42.600;23.556;2023-02-15T07:19:47;94670.22;;;2.32;100.00
10466;BME280;5280;42.600;23.556;2023-02-15T07:22:14;94676.22;;;2.34;100.00
10466;BME280;5280;42.600;23.556;2023-02-15T07:24:43;94676.00;;;2.43;100.00
10466;BME280;5280;42.600;23.556;2023-02-15T07:27:11;94657.81;;;2.40;100.00
10466;BME280;5280;42.600;23.556;2023-02-15T07:29:38;94661.22;;;2.42;100.00
10466;BME280;5280;42.600;23.556;2023-02-15T07:32:05;94654.19;;;2.44;100.00
10466;BME280;5280;42.600;23.556;2023-02-15T07:34:32;94662.75;;;2.49;100.00
10466;BME280;5280;42.600;23.556;2023-02-15T07:36:59;94649.66;;;2.52;100.00
10466;BME280;5280;42.600;23.556;2023-02-15T07:39:25;94655.63;;;2.56;100.00
10466;BME280;5280;42.600;23.556;2023-02-15T07:41:52;94665.03;;;2.62;100.00
10466;BME280;5280;42.600;23.556;2023-02-15T07:44:20;94674.66;;;2.59;100.00
10466;BME280;5280;42.600;23.556;2023-02-15T07:46:47;94644.19;;;2.60;100.00
10466;BME280;5280;42.600;23.556;2023-02-15T07:49:16;94661.09;;;2.78;100.00
10466;BME280;5280;42.600;23.556;2023-02-15T07:51:42;94665.47;;;2.77;100.00
10466;BME280;5280;42.600;23.556;2023-02-15T07:54:09;94672.16;;;2.86;100.00
10466;BME280;5280;42.600;23.556;2023-02-15T07:56:36;94669.00;;;2.75;100.00
10466;BME280;5280;42.600;23.556;2023-02-15T07:59:03;94678.41;;;2.80;100.00
10466;BME280;5280;42.600;23.556;2023-02-15T08:01:33;94673.97;;;2.84;100.00
10466;BME280;5280;42.600;23.556;2023-02-15T08:04:01;94662.75;;;2.80;100.00
10466;BME280;5280;42.600;23.556;2023-02-15T08:06:30;94674.81;;;2.84;100.00
10466;BME280;5280;42.600;23.556;2023-02-15T08:08:57;94607.06;;;2.50;100.00
10466;BME280;5280;42.600;23.556;2023-02-15T08:11:25;94671.25;;;2.87;100.00
10466;BME280;5280;42.600;23.556;2023-02-15T08:13:55;94675.50;;;2.91;100.00
10466;BME280;5280;42.600;23.556;2023-02-15T08:16:26;94647.22;;;2.76;100.00
10466;BME280;5280;42.600;23.556;2023-02-15T08:18:55;94663.44;;;2.87;100.00
10466;BME280;5280;42.600;23.556;2023-02-15T08:21:22;94675.22;;;3.00;99.63
10466;BME280;5280;42.600;23.556;2023-02-15T08:23:49;94674.47;;;2.96;99.69
10466;BME280;5280;42.600;23.556;2023-02-15T08:26:16;94642.44;;;2.90;98.95
10466;BME280;5280;42.600;23.556;2023-02-15T08:28:43;94679.69;;;2.96;100.00
10466;BME280;5280;42.600;23.556;2023-02-15T08:31:13;94653.66;;;2.93;99.69
10466;BME280;5280;42.600;23.556;2023-02-15T08:33:41;94673.25;;;3.08;100.00
10466;BME280;5280;42.600;23.556;2023-02-15T08:36:12;94668.78;;;3.12;100.00
10466;BME280;5280;42.600;23.556;2023-02-15T08:38:40;94674.69;;;3.18;99.14
10466;BME280;5280;42.600;23.556;2023-02-15T08:41:15;94674.56;;;3.21;98.73
10466;BME280;5280;42.600;23.556;2023-02-15T08:43:43;94660.91;;;3.13;97.75
10466;BME280;5280;42.600;23.556;2023-02-15T08:46:10;94679.69;;;3.24;97.37
10466;BME280;5280;42.600;23.556;2023-02-15T08:48:37;94684.84;;;3.27;98.06
10466;BME280;5280;42.600;23.556;2023-02-15T08:51:07;94679.38;;;3.35;96.94
10466;BME280;5280;42.600;23.556;2023-02-15T08:53:37;94685.44;;;3.35;96.53
10466;BME280;5280;42.600;23.556;2023-02-15T08:56:05;94686.34;;;3.34;96.04
10466;BME280;5280;42.600;23.556;2023-02-15T08:58:32;94670.81;;;3.30;96.77
10466;BME280;5280;42.600;23.556;2023-02-15T09:00:59;94677.53;;;3.38;96.97
10466;BME280;5280;42.600;23.556;2023-02-15T09:03:27;94650.00;;;3.28;96.51
10466;BME280;5280;42.600;23.556;2023-02-15T09:05:58;94676.34;;;3.49;95.94
10466;BME280;5280;42.600;23.556;2023-02-15T09:08:25;94677.00;;;3.55;96.52
10466;BME280;5280;42.600;23.556;2023-02-15T09:10:54;94670.28;;;3.48;95.95
10466;BME280;5280;42.600;23.556;2023-02-15T09:13:21;94679.41;;;3.61;95.82
10466;BME280;5280;42.600;23.556;2023-02-15T09:15:47;94673.22;;;3.64;95.36
10466;BME280;5280;42.600;23.556;2023-02-15T09:18:14;94688.06;;;3.63;93.81
10466;BME280;5280;42.600;23.556;2023-02-15T09:20:43;94677.66;;;3.62;93.34
10466;BME280;5280;42.600;23.556;2023-02-15T09:23:10;94682.75;;;3.66;93.49
10466;BME280;5280;42.600;23.556;2023-02-15T09:25:37;94670.13;;;3.53;93.30
10466;BME280;5280;42.600;23.556;2023-02-15T09:28:05;94673.19;;;3.65;93.14
10466;BME280;5280;42.600;23.556;2023-02-15T09:30:33;94678.59;;;3.59;93.37
10466;BME280;5280;42.600;23.556;2023-02-15T09:33:00;94672.25;;;3.68;93.53
10466;BME280;5280;42.600;23.556;2023-02-15T09:35:26;94672.13;;;3.71;92.41
10466;BME280;5280;42.600;23.556;2023-02-15T09:37:53;94677.06;;;3.80;91.95
10466;BME280;5280;42.600;23.556;2023-02-15T09:40:20;94681.28;;;3.84;90.96
10466;BME280;5280;42.600;23.556;2023-02-15T09:43:06;94652.94;;;3.72;88.87
10466;BME280;5280;42.600;23.556;2023-02-15T09:45:49;94679.38;;;3.89;88.64
10466;BME280;5280;42.600;23.556;2023-02-15T09:48:40;94678.63;;;3.85;89.49
10466;BME280;5280;42.600;23.556;2023-02-15T09:54:24;94671.53;;;3.89;87.69
10466;BME280;5280;42.600;23.556;2023-02-15T09:56:59;94674.13;;;3.89;87.76
10466;BME280;5280;42.600;23.556;2023-02-15T09:59:39;94663.78;;;3.86;87.86
10466;BME280;5280;42.600;23.556;2023-02-15T10:02:20;94665.25;;;3.95;87.44
10466;BME280;5280;42.600;23.556;2023-02-15T10:04:58;94660.72;;;4.00;87.80
10466;BME280;5280;42.600;23.556;2023-02-15T10:07:53;94659.09;;;3.96;87.01
10466;BME280;5280;42.600;23.556;2023-02-15T10:10:34;94641.06;;;3.88;86.52
10466;BME280;5280;42.600;23.556;2023-02-15T10:13:23;94667.00;;;3.94;86.08
10466;BME280;5280;42.600;23.556;2023-02-15T10:16:05;94624.06;;;3.75;86.94
10466;BME280;5280;42.600;23.556;2023-02-15T10:18:45;94659.97;;;3.96;86.14
10466;BME280;5280;42.600;23.556;2023-02-15T10:21:27;94661.69;;;3.97;86.72
10466;BME280;5280;42.600;23.556;2023-02-15T10:26:56;94637.25;;;3.98;85.25
10466;BME280;5280;42.600;23.556;2023-02-15T10:29:31;94643.53;;;4.17;86.23
10466;BME280;5280;42.600;23.556;2023-02-15T10:32:08;94573.00;;;3.89;85.97
10466;BME280;5280;42.600;23.556;2023-02-15T10:34:39;94639.38;;;4.37;84.53
10466;BME280;5280;42.600;23.556;2023-02-15T10:37:33;94639.53;;;4.57;82.68
10466;BME280;5280;42.600;23.556;2023-02-15T10:40:08;94642.13;;;4.57;82.42
10466;BME280;5280;42.600;23.556;2023-02-15T10:42:49;94639.63;;;4.54;81.59
10466;BME280;5280;42.600;23.556;2023-02-15T10:45:25;94626.81;;;4.46;82.99
10466;BME280;5280;42.600;23.556;2023-02-15T10:48:17;94612.22;;;4.39;83.18
10466;BME280;5280;42.600;23.556;2023-02-15T10:50:50;94624.06;;;4.49;82.70
10466;BME280;5280;42.600;23.556;2023-02-15T10:53:43;94618.31;;;4.40;82.24
10466;BME280;5280;42.600;23.556;2023-02-15T10:56:16;94613.59;;;4.49;84.27
10466;BME280;5280;42.600;23.556;2023-02-15T11:01:40;94620.03;;;4.64;82.61
10466;BME280;5280;42.600;23.556;2023-02-15T11:07:12;94612.97;;;4.67;80.57
10466;BME280;5280;42.600;23.556;2023-02-15T11:09:44;94614.53;;;4.71;79.48
10466;BME280;5280;42.600;23.556;2023-02-15T11:12:16;94612.31;;;4.61;79.70
10466;BME280;5280;42.600;23.556;2023-02-15T11:14:50;94613.81;;;4.68;79.56
10466;BME280;5280;42.600;23.556;2023-02-15T11:17:22;94605.38;;;4.60;81.19
10466;BME280;5280;42.600;23.556;2023-02-15T11:19:56;94616.19;;;4.74;82.12
10466;BME280;5280;42.600;23.556;2023-02-15T11:22:26;94599.47;;;4.78;79.78
10466;BME280;5280;42.600;23.556;2023-02-15T11:24:53;94606.78;;;4.92;80.90
10466;BME280;5280;42.600;23.556;2023-02-15T11:27:25;94606.38;;;5.02;79.34
10466;BME280;5280;42.600;23.556;2023-02-15T11:29:59;94604.69;;;5.01;78.76
10466;BME280;5280;42.600;23.556;2023-02-15T11:32:29;94605.22;;;5.09;77.10
10466;BME280;5280;42.600;23.556;2023-02-15T11:35:02;94602.69;;;5.08;77.05
10466;BME280;5280;42.600;23.556;2023-02-15T11:37:34;94603.34;;;5.13;76.10
10466;BME280;5280;42.600;23.556;2023-02-15T11:40:03;94598.28;;;5.08;77.72
10466;BME280;5280;42.600;23.556;2023-02-15T11:42:40;94604.03;;;5.18;77.47
10466;BME280;5280;42.600;23.556;2023-02-15T11:45:19;94602.31;;;5.17;76.05
10466;BME280;5280;42.600;23.556;2023-02-15T11:47:47;94594.38;;;5.18;76.21
10466;BME280;5280;42.600;23.556;2023-02-15T11:50:20;94600.44;;;5.20;76.68
10466;BME280;5280;42.600;23.556;2023-02-15T11:52:48;94592.88;;;5.13;76.61
10466;BME280;5280;42.600;23.556;2023-02-15T11:55:19;94591.09;;;5.13;77.48
10466;BME280;5280;42.600;23.556;2023-02-15T11:57:51;94590.13;;;5.16;77.84
10466;BME280;5280;42.600;23.556;2023-02-15T12:00:29;94572.19;;;5.05;77.33
10466;BME280;5280;42.600;23.556;2023-02-15T12:03:04;94592.44;;;5.24;76.45
10466;BME280;5280;42.600;23.556;2023-02-15T12:05:36;94580.38;;;5.19;75.17
10466;BME280;5280;42.600;23.556;2023-02-15T12:08:13;94580.38;;;5.19;75.24
10466;BME280;5280;42.600;23.556;2023-02-15T12:10:51;94565.00;;;5.10;76.13
10466;BME280;5280;42.600;23.556;2023-02-15T12:13:20;94568.13;;;5.20;76.20
10466;BME280;5280;42.600;23.556;2023-02-15T12:15:48;94565.00;;;5.10;75.36
10466;BME280;5280;42.600;23.556;2023-02-15T12:18:25;94541.75;;;5.03;75.52
10466;BME280;5280;42.600;23.556;2023-02-15T12:20:57;94560.13;;;5.23;76.82
10466;BME280;5280;42.600;23.556;2023-02-15T12:23:28;94561.84;;;5.24;76.07
10466;BME280;5280;42.600;23.556;2023-02-15T12:25:56;94545.25;;;5.24;74.68
10466;BME280;5280;42.600;23.556;2023-02-15T12:28:26;94552.44;;;5.40;75.70
10466;BME280;5280;42.600;23.556;2023-02-15T12:30:57;94501.31;;;5.08;74.28
10466;BME280;5280;42.600;23.556;2023-02-15T12:33:28;94544.97;;;5.31;73.39
10466;BME280;5280;42.600;23.556;2023-02-15T12:36:02;94484.72;;;4.88;73.09
10466;BME280;5280;42.600;23.556;2023-02-15T12:38:30;94560.38;;;5.39;71.36
10466;BME280;5280;42.600;23.556;2023-02-15T12:41:00;94555.22;;;5.37;72.71
10466;BME280;5280;42.600;23.556;2023-02-15T12:43:31;94542.34;;;5.31;74.44
10466;BME280;5280;42.600;23.556;2023-02-15T12:46:20;94549.03;;;5.38;75.33
10466;BME280;5280;42.600;23.556;2023-02-15T12:49:05;94541.66;;;5.48;75.38
10466;BME280;5280;42.600;23.556;2023-02-15T12:51:46;94548.22;;;5.58;73.32
10466;BME280;5280;42.600;23.556;2023-02-15T12:54:32;94538.53;;;5.60;73.45
10466;BME280;5280;42.600;23.556;2023-02-15T12:57:15;94526.47;;;5.56;74.42
10466;BME280;5280;42.600;23.556;2023-02-15T12:59:51;94535.50;;;5.69;73.87
10466;BME280;5280;42.600;23.556;2023-02-15T13:02:23;94527.63;;;5.69;73.09
10466;BME280;5280;42.600;23.556;2023-02-15T13:04:51;94533.63;;;5.73;74.14
10466;BME280;5280;42.600;23.556;2023-02-15T13:07:20;94531.56;;;5.59;75.04
10466;BME280;5280;42.600;23.556;2023-02-15T13:09:48;94535.50;;;5.69;75.10
10466;BME280;5280;42.600;23.556;2023-02-15T13:12:20;94532.84;;;5.71;74.36
10466;BME280;5280;42.600;23.556;2023-02-15T13:14:48;94537.16;;;5.72;72.70
10466;BME280;5280;42.600;23.556;2023-02-15T13:17:21;94531.97;;;5.70;71.90
10466;BME280;5280;42.600;23.556;2023-02-15T13:19:56;94512.50;;;5.55;74.92
10466;BME280;5280;42.600;23.556;2023-02-15T13:22:28;94510.59;;;5.59;74.71
10466;BME280;5280;42.600;23.556;2023-02-15T13:25:03;94523.50;;;5.63;74.09
10466;BME280;5280;42.600;23.556;2023-02-15T13:27:37;94522.41;;;5.69;72.75
10466;BME280;5280;42.600;23.556;2023-02-15T13:30:16;94523.69;;;5.59;71.95
10466;BME280;5280;42.600;23.556;2023-02-15T13:32:48;94500.63;;;5.47;73.82
10466;BME280;5280;42.600;23.556;2023-02-15T13:35:17;94513.97;;;5.62;72.93
10466;BME280;5280;42.600;23.556;2023-02-15T13:37:58;94515.81;;;5.59;73.52
10466;BME280;5280;42.600;23.556;2023-02-15T13:40:33;94533.22;;;5.61;74.30
10466;BME280;5280;42.600;23.556;2023-02-15T13:43:05;94529.81;;;5.59;74.16
10466;BME280;5280;42.600;23.556;2023-02-15T13:45:47;94519.66;;;5.52;73.86